createdAt,value
2018-04-29T00:00:36.497Z,1006.18
2018-04-29T00:01:36.686Z,1006.17
2018-04-29T00:02:36.500Z,1006.12
2018-04-29T00:03:36.549Z,1006.11
2018-04-29T00:04:36.503Z,1006.13
2018-04-29T00:05:36.416Z,1006.12
2018-04-29T00:06:36.458Z,1006.05
2018-04-29T00:07:36.623Z,1006.06
2018-04-29T00:08:36.371Z,1006.07
2018-04-29T00:09:36.325Z,1006.05
2018-04-29T00:10:36.344Z,1006.05
2018-04-29T00:11:36.237Z,1006.05
2018-04-29T00:12:36.156Z,1006.04
2018-04-29T00:13:36.166Z,1006.01
2018-04-29T00:14:36.140Z,1005.97
2018-04-29T00:15:36.092Z,1005.95
2018-04-29T00:16:36.104Z,1005.95
2018-04-29T00:17:36.119Z,1005.90
2018-04-29T00:18:35.985Z,1005.91
2018-04-29T00:19:36.148Z,1005.89
2018-04-29T00:20:36.009Z,1005.94
2018-04-29T00:21:36.156Z,1005.93
2018-04-29T00:22:35.944Z,1005.92
2018-04-29T00:23:35.868Z,1005.92
2018-04-29T00:24:35.967Z,1005.90
2018-04-29T00:25:35.952Z,1005.94
2018-04-29T00:26:35.915Z,1005.91
2018-04-29T00:27:35.724Z,1005.92
2018-04-29T00:28:35.776Z,1005.91
2018-04-29T00:29:35.781Z,1005.91
2018-04-29T00:30:35.662Z,1005.94
2018-04-29T00:31:35.636Z,1005.94
2018-04-29T00:32:35.639Z,1005.91
2018-04-29T00:33:35.644Z,1005.91
2018-04-29T00:34:35.552Z,1005.89
2018-04-29T00:35:35.612Z,1005.85
2018-04-29T00:36:35.480Z,1005.85
2018-04-29T00:37:35.577Z,1005.82
2018-04-29T00:38:35.619Z,1005.85
2018-04-29T00:39:35.421Z,1005.81
2018-04-29T00:40:35.543Z,1005.79
2018-04-29T00:41:35.540Z,1005.77
2018-04-29T00:42:35.352Z,1005.78
2018-04-29T00:43:35.285Z,1005.78
2018-04-29T00:44:35.345Z,1005.82
2018-04-29T00:45:35.435Z,1005.83
2018-04-29T00:46:35.340Z,1005.83
2018-04-29T00:47:35.193Z,1005.80
2018-04-29T00:48:35.202Z,1005.77
2018-04-29T00:49:35.112Z,1005.75
2018-04-29T00:50:35.211Z,1005.72
2018-04-29T00:51:35.054Z,1005.76
2018-04-29T00:52:35.139Z,1005.74
2018-04-29T00:53:34.993Z,1005.73
2018-04-29T00:54:35.101Z,1005.73
2018-04-29T00:55:35.025Z,1005.75
2018-04-29T00:56:34.955Z,1005.78
2018-04-29T00:57:34.934Z,1005.75
2018-04-29T00:58:34.957Z,1005.75
2018-04-29T00:59:34.966Z,1005.74
2018-04-29T01:00:34.806Z,1005.79
2018-04-29T01:01:34.812Z,1005.78
2018-04-29T01:02:34.784Z,1005.84
2018-04-29T01:03:34.717Z,1005.85
2018-04-29T01:04:34.729Z,1005.86
2018-04-29T01:05:34.790Z,1005.85
2018-04-29T01:06:34.776Z,1005.84
2018-04-29T01:07:34.838Z,1005.87
2018-04-29T01:08:34.757Z,1005.84
2018-04-29T01:09:34.656Z,1005.85
2018-04-29T01:10:34.655Z,1005.86
2018-04-29T01:11:34.632Z,1005.82
2018-04-29T01:12:34.594Z,1005.83
2018-04-29T01:13:34.482Z,1005.79
2018-04-29T01:14:34.407Z,1005.78
2018-04-29T01:15:34.622Z,1005.76
2018-04-29T01:16:34.564Z,1005.72
2018-04-29T01:17:34.496Z,1005.71
2018-04-29T01:18:34.447Z,1005.75
2018-04-29T01:19:34.277Z,1005.81
2018-04-29T01:20:34.606Z,1005.89
2018-04-29T01:21:34.294Z,1005.86
2018-04-29T01:22:34.199Z,1005.84
2018-04-29T01:23:34.459Z,1005.82
2018-04-29T01:24:34.132Z,1005.76
2018-04-29T01:25:34.201Z,1005.74
2018-04-29T01:26:34.284Z,1005.71
2018-04-29T01:27:34.141Z,1005.71
2018-04-29T01:28:34.221Z,1005.73
2018-04-29T01:29:34.134Z,1005.67
2018-04-29T01:30:34.238Z,1005.70
2018-04-29T01:31:34.168Z,1005.68
2018-04-29T01:32:33.950Z,1005.63
2018-04-29T01:33:34.094Z,1005.58
2018-04-29T01:34:33.864Z,1005.59
2018-04-29T01:35:33.900Z,1005.56
2018-04-29T01:36:33.947Z,1005.53
2018-04-29T01:37:33.877Z,1005.59
2018-04-29T01:38:33.812Z,1005.56
2018-04-29T01:39:33.792Z,1005.56
2018-04-29T01:40:33.657Z,1005.52
2018-04-29T01:41:33.667Z,1005.55
2018-04-29T01:42:33.819Z,1005.59
2018-04-29T01:43:33.743Z,1005.58
2018-04-29T01:44:33.722Z,1005.59
2018-04-29T01:45:33.605Z,1005.58
2018-04-29T01:46:33.489Z,1005.63
2018-04-29T01:47:33.576Z,1005.61
2018-04-29T01:48:33.684Z,1005.61
2018-04-29T01:49:33.428Z,1005.59
2018-04-29T01:50:33.385Z,1005.60
2018-04-29T01:51:33.477Z,1005.63
2018-04-29T01:52:33.389Z,1005.59
2018-04-29T01:53:33.410Z,1005.61
2018-04-29T01:54:33.358Z,1005.62
2018-04-29T01:55:33.383Z,1005.56
2018-04-29T01:56:33.419Z,1005.58
2018-04-29T01:57:33.349Z,1005.55
2018-04-29T01:58:33.357Z,1005.57
2018-04-29T01:59:33.168Z,1005.47
2018-04-29T02:00:33.180Z,1005.49
2018-04-29T02:01:33.186Z,1005.45
2018-04-29T02:02:33.179Z,1005.39
2018-04-29T02:03:33.210Z,1005.36
2018-04-29T02:04:33.089Z,1005.38
2018-04-29T02:05:32.956Z,1005.37
2018-04-29T02:06:33.013Z,1005.31
2018-04-29T02:07:33.129Z,1005.30
2018-04-29T02:08:32.882Z,1005.27
2018-04-29T02:09:32.844Z,1005.25
2018-04-29T02:10:32.816Z,1005.24
2018-04-29T02:11:32.774Z,1005.22
2018-04-29T02:12:32.817Z,1005.21
2018-04-29T02:13:32.831Z,1005.23
2018-04-29T02:14:32.771Z,1005.30
2018-04-29T02:15:32.894Z,1005.37
2018-04-29T02:16:32.886Z,1005.36
2018-04-29T02:17:32.632Z,1005.34
2018-04-29T02:18:32.664Z,1005.33
2018-04-29T02:19:32.721Z,1005.32
2018-04-29T02:20:32.696Z,1005.33
2018-04-29T02:21:32.603Z,1005.30
2018-04-29T02:22:32.542Z,1005.25
2018-04-29T02:23:32.552Z,1005.26
2018-04-29T02:24:32.504Z,1005.25
2018-04-29T02:25:32.477Z,1005.28
2018-04-29T02:26:32.497Z,1005.33
2018-04-29T02:27:32.325Z,1005.30
2018-04-29T02:28:32.282Z,1005.28
2018-04-29T02:29:32.292Z,1005.30
2018-04-29T02:30:32.285Z,1005.20
2018-04-29T02:31:32.352Z,1005.16
2018-04-29T02:32:32.315Z,1005.11
2018-04-29T02:33:32.339Z,1005.12
2018-04-29T02:34:32.147Z,1005.11
2018-04-29T02:35:32.131Z,1005.13
2018-04-29T02:36:32.162Z,1005.07
2018-04-29T02:37:32.035Z,1005.05
2018-04-29T02:38:32.075Z,1005.05
2018-04-29T02:39:32.254Z,1005.02
2018-04-29T02:40:32.055Z,1005.05
2018-04-29T02:41:31.929Z,1005.05
2018-04-29T02:42:32.108Z,1005.06
2018-04-29T02:43:31.848Z,1005.02
2018-04-29T02:44:31.821Z,1004.97
2018-04-29T02:45:31.943Z,1004.96
2018-04-29T02:46:31.912Z,1004.94
2018-04-29T02:47:31.765Z,1004.96
2018-04-29T02:48:31.862Z,1004.92
2018-04-29T02:49:31.840Z,1004.98
2018-04-29T02:50:31.803Z,1005.00
2018-04-29T02:51:31.654Z,1005.01
2018-04-29T02:52:31.768Z,1005.05
2018-04-29T02:53:31.649Z,1005.08
2018-04-29T02:54:31.689Z,1005.10
2018-04-29T02:55:31.637Z,1005.08
2018-04-29T02:56:31.475Z,1005.13
2018-04-29T02:57:31.491Z,1005.11
2018-04-29T02:58:31.445Z,1005.11
2018-04-29T02:59:31.485Z,1005.16
2018-04-29T03:00:31.445Z,1005.16
2018-04-29T03:01:31.338Z,1005.16
2018-04-29T03:02:31.503Z,1005.19
2018-04-29T03:03:31.383Z,1005.25
2018-04-29T03:04:31.318Z,1005.23
2018-04-29T03:05:31.253Z,1005.27
2018-04-29T03:06:31.363Z,1005.21
2018-04-29T03:07:31.203Z,1005.19
2018-04-29T03:08:31.245Z,1005.17
2018-04-29T03:09:31.113Z,1005.13
2018-04-29T03:10:31.184Z,1005.13
2018-04-29T03:11:31.097Z,1005.09
2018-04-29T03:12:31.178Z,1005.06
2018-04-29T03:13:31.018Z,1005.04
2018-04-29T03:14:30.961Z,1005.04
2018-04-29T03:15:30.950Z,1005.01
2018-04-29T03:16:31.078Z,1005.01
2018-04-29T03:17:30.981Z,1004.99
2018-04-29T03:18:30.968Z,1004.96
2018-04-29T03:19:30.827Z,1004.96
2018-04-29T03:20:30.920Z,1004.91
2018-04-29T03:21:30.857Z,1004.91
2018-04-29T03:22:30.777Z,1004.86
2018-04-29T03:23:30.696Z,1004.86
2018-04-29T03:24:30.783Z,1004.79
2018-04-29T03:25:30.724Z,1004.78
2018-04-29T03:26:30.766Z,1004.75
2018-04-29T03:27:30.594Z,1004.77
2018-04-29T03:28:30.553Z,1004.79
2018-04-29T03:29:30.629Z,1004.76
2018-04-29T03:30:30.567Z,1004.74
2018-04-29T03:31:30.484Z,1004.73
2018-04-29T03:32:30.533Z,1004.73
2018-04-29T03:33:30.431Z,1004.73
2018-04-29T03:34:30.435Z,1004.70
2018-04-29T03:35:30.354Z,1004.67
2018-04-29T03:36:30.423Z,1004.65
2018-04-29T03:37:30.297Z,1004.66
2018-04-29T03:38:30.247Z,1004.67
2018-04-29T03:39:30.265Z,1004.66
2018-04-29T03:40:30.193Z,1004.64
2018-04-29T03:41:30.304Z,1004.65
2018-04-29T03:42:30.242Z,1004.66
2018-04-29T03:43:30.168Z,1004.63
2018-04-29T03:44:30.082Z,1004.66
2018-04-29T03:45:30.176Z,1004.68
2018-04-29T03:46:30.232Z,1004.67
2018-04-29T03:47:30.152Z,1004.64
2018-04-29T03:48:30.174Z,1004.59
2018-04-29T03:49:30.053Z,1004.59
2018-04-29T03:50:30.061Z,1004.58
2018-04-29T03:51:29.878Z,1004.53
2018-04-29T03:52:29.850Z,1004.59
2018-04-29T03:53:29.811Z,1004.60
2018-04-29T03:54:29.837Z,1004.56
2018-04-29T03:55:29.884Z,1004.57
2018-04-29T03:56:29.760Z,1004.60
2018-04-29T03:57:29.719Z,1004.60
2018-04-29T03:58:29.854Z,1004.67
2018-04-29T03:59:29.746Z,1004.68
2018-04-29T04:00:29.670Z,1004.72
2018-04-29T04:01:29.669Z,1004.72
2018-04-29T04:02:29.598Z,1004.79
2018-04-29T04:03:29.550Z,1004.79
2018-04-29T04:04:29.498Z,1004.78
2018-04-29T04:05:29.493Z,1004.76
2018-04-29T04:06:29.435Z,1004.75
2018-04-29T04:07:29.412Z,1004.70
2018-04-29T04:08:29.603Z,1004.72
2018-04-29T04:09:29.398Z,1004.72
2018-04-29T04:10:29.322Z,1004.64
2018-04-29T04:11:29.306Z,1004.68
2018-04-29T04:12:29.361Z,1004.69
2018-04-29T04:13:29.230Z,1004.71
2018-04-29T04:14:29.209Z,1004.74
2018-04-29T04:15:29.228Z,1004.74
2018-04-29T04:16:29.258Z,1004.80
2018-04-29T04:17:29.111Z,1004.75
2018-04-29T04:18:29.105Z,1004.82
2018-04-29T04:19:29.054Z,1004.76
2018-04-29T04:20:29.228Z,1004.77
2018-04-29T04:21:29.046Z,1004.75
2018-04-29T04:22:29.035Z,1004.70
2018-04-29T04:23:29.007Z,1004.71
2018-04-29T04:24:28.906Z,1004.66
2018-04-29T04:25:29.004Z,1004.68
2018-04-29T04:26:28.857Z,1004.65
2018-04-29T04:27:28.911Z,1004.58
2018-04-29T04:28:28.823Z,1004.58
2018-04-29T04:29:28.759Z,1004.54
2018-04-29T04:30:28.754Z,1004.51
2018-04-29T04:31:28.844Z,1004.55
2018-04-29T04:32:28.808Z,1004.52
2018-04-29T04:33:28.783Z,1004.53
2018-04-29T04:34:28.627Z,1004.50
2018-04-29T04:35:28.607Z,1004.51
2018-04-29T04:36:28.665Z,1004.52
2018-04-29T04:37:28.606Z,1004.51
2018-04-29T04:38:28.649Z,1004.51
2018-04-29T04:39:28.492Z,1004.51
2018-04-29T04:40:28.469Z,1004.53
2018-04-29T04:41:28.537Z,1004.52
2018-04-29T04:42:28.474Z,1004.50
2018-04-29T04:43:28.426Z,1004.53
2018-04-29T04:44:28.330Z,1004.51
2018-04-29T04:45:28.387Z,1004.50
2018-04-29T04:46:28.296Z,1004.47
2018-04-29T04:47:28.327Z,1004.47
2018-04-29T04:48:28.196Z,1004.47
2018-04-29T04:49:28.246Z,1004.47
2018-04-29T04:50:28.160Z,1004.46
2018-04-29T04:51:28.171Z,1004.46
2018-04-29T04:52:28.175Z,1004.50
2018-04-29T04:53:28.126Z,1004.51
2018-04-29T04:54:28.038Z,1004.52
2018-04-29T04:55:27.996Z,1004.47
2018-04-29T04:56:27.975Z,1004.50
2018-04-29T04:57:27.989Z,1004.48
2018-04-29T04:58:28.011Z,1004.47
2018-04-29T04:59:27.969Z,1004.46
2018-04-29T05:00:27.960Z,1004.45
2018-04-29T05:01:27.874Z,1004.46
2018-04-29T05:02:27.810Z,1004.48
2018-04-29T05:03:27.797Z,1004.49
2018-04-29T05:04:27.731Z,1004.46
2018-04-29T05:05:27.873Z,1004.52
2018-04-29T05:06:27.685Z,1004.49
2018-04-29T05:07:27.657Z,1004.58
2018-04-29T05:08:27.632Z,1004.59
2018-04-29T05:09:27.606Z,1004.61
2018-04-29T05:10:27.732Z,1004.66
2018-04-29T05:11:27.557Z,1004.68
2018-04-29T05:12:27.596Z,1004.73
2018-04-29T05:13:27.497Z,1004.71
2018-04-29T05:14:27.607Z,1004.74
2018-04-29T05:15:27.532Z,1004.71
2018-04-29T05:16:27.416Z,1004.72
2018-04-29T05:17:27.361Z,1004.74
2018-04-29T05:18:27.313Z,1004.75
2018-04-29T05:19:27.368Z,1004.75
2018-04-29T05:20:27.353Z,1004.75
2018-04-29T05:21:27.317Z,1004.75
2018-04-29T05:22:27.209Z,1004.73
2018-04-29T05:23:27.282Z,1004.83
2018-04-29T05:24:27.154Z,1004.86
2018-04-29T05:25:27.142Z,1004.94
2018-04-29T05:26:27.156Z,1004.99
2018-04-29T05:27:27.065Z,1005.04
2018-04-29T05:28:27.102Z,1005.00
2018-04-29T05:29:27.051Z,1004.98
2018-04-29T05:30:26.982Z,1005.02
2018-04-29T05:31:26.953Z,1005.05
2018-04-29T05:32:27.040Z,1004.99
2018-04-29T05:33:27.063Z,1004.98
2018-04-29T05:34:27.002Z,1004.90
2018-04-29T05:35:26.870Z,1004.89
2018-04-29T05:36:26.813Z,1004.90
2018-04-29T05:37:26.787Z,1004.84
2018-04-29T05:38:26.768Z,1004.89
2018-04-29T05:39:26.725Z,1004.93
2018-04-29T05:40:26.812Z,1004.90
2018-04-29T05:41:26.675Z,1004.94
2018-04-29T05:42:26.649Z,1004.97
2018-04-29T05:43:26.621Z,1004.94
2018-04-29T05:44:26.663Z,1004.90
2018-04-29T05:45:26.583Z,1004.90
2018-04-29T05:46:26.522Z,1004.85
2018-04-29T05:47:26.510Z,1004.85
2018-04-29T05:48:26.463Z,1004.83
2018-04-29T05:49:26.455Z,1004.83
2018-04-29T05:50:26.411Z,1004.81
2018-04-29T05:51:26.474Z,1004.80
2018-04-29T05:52:26.385Z,1004.71
2018-04-29T05:53:26.331Z,1004.67
2018-04-29T05:54:26.435Z,1004.68
2018-04-29T05:55:26.351Z,1004.66
2018-04-29T05:56:26.242Z,1004.65
2018-04-29T05:57:26.224Z,1004.60
2018-04-29T05:58:26.191Z,1004.58
2018-04-29T05:59:26.155Z,1004.47
2018-04-29T06:00:26.297Z,1004.44
2018-04-29T06:01:26.214Z,1004.32
2018-04-29T06:02:26.074Z,1004.28
2018-04-29T06:03:26.223Z,1004.27
2018-04-29T06:04:26.069Z,1004.22
2018-04-29T06:05:25.984Z,1004.20
2018-04-29T06:06:26.067Z,1004.20
2018-04-29T06:07:26.019Z,1004.16
2018-04-29T06:08:25.978Z,1004.08
2018-04-29T06:09:25.869Z,1004.02
2018-04-29T06:10:25.854Z,1003.92
2018-04-29T06:11:25.824Z,1003.88
2018-04-29T06:12:25.844Z,1003.84
2018-04-29T06:13:25.772Z,1003.82
2018-04-29T06:14:25.875Z,1003.83
2018-04-29T06:15:25.712Z,1003.81
2018-04-29T06:16:25.780Z,1003.77
2018-04-29T06:17:25.658Z,1003.79
2018-04-29T06:18:25.627Z,1003.87
2018-04-29T06:19:25.713Z,1003.90
2018-04-29T06:20:25.644Z,1003.91
2018-04-29T06:21:25.653Z,1003.98
2018-04-29T06:22:25.533Z,1004.02
2018-04-29T06:23:25.490Z,1004.10
2018-04-29T06:24:25.519Z,1004.07
2018-04-29T06:25:25.466Z,1004.15
2018-04-29T06:26:25.412Z,1004.15
2018-04-29T06:27:25.369Z,1004.14
2018-04-29T06:28:25.351Z,1004.10
2018-04-29T06:29:25.425Z,1004.05
2018-04-29T06:30:25.355Z,1004.01
2018-04-29T06:31:25.264Z,1003.98
2018-04-29T06:32:25.248Z,1003.94
2018-04-29T06:33:25.420Z,1003.90
2018-04-29T06:34:25.214Z,1003.83
2018-04-29T06:35:25.199Z,1003.81
2018-04-29T06:36:25.132Z,1003.74
2018-04-29T06:37:25.138Z,1003.73
2018-04-29T06:38:25.087Z,1003.69
2018-04-29T06:39:25.050Z,1003.72
2018-04-29T06:40:25.079Z,1003.72
2018-04-29T06:41:25.002Z,1003.72
2018-04-29T06:42:24.971Z,1003.72
2018-04-29T06:43:24.945Z,1003.71
2018-04-29T06:44:25.830Z,1003.70
2018-04-29T06:45:24.892Z,1003.64
2018-04-29T06:46:24.993Z,1003.63
2018-04-29T06:47:24.916Z,1003.63
2018-04-29T06:48:24.810Z,1003.55
2018-04-29T06:49:24.813Z,1003.59
2018-04-29T06:50:24.838Z,1003.63
2018-04-29T06:51:24.871Z,1003.68
2018-04-29T06:52:24.798Z,1003.79
2018-04-29T06:53:24.678Z,1003.87
2018-04-29T06:54:24.664Z,1003.94
2018-04-29T06:55:24.639Z,1003.95
2018-04-29T06:56:24.641Z,1004.00
2018-04-29T06:57:24.564Z,1003.95
2018-04-29T06:58:24.537Z,1003.98
2018-04-29T06:59:24.509Z,1004.00
2018-04-29T07:00:24.485Z,1004.04
2018-04-29T07:01:24.456Z,1004.06
2018-04-29T07:02:24.469Z,1004.11
2018-04-29T07:03:24.407Z,1004.09
2018-04-29T07:04:24.373Z,1004.10
2018-04-29T07:05:24.344Z,1004.13
2018-04-29T07:06:24.436Z,1004.16
2018-04-29T07:07:24.302Z,1004.18
2018-04-29T07:08:24.284Z,1004.20
2018-04-29T07:09:24.264Z,1004.21
2018-04-29T07:10:24.210Z,1004.22
2018-04-29T07:11:24.241Z,1004.27
2018-04-29T07:12:24.267Z,1004.28
2018-04-29T07:13:24.252Z,1004.34
2018-04-29T07:14:24.278Z,1004.33
2018-04-29T07:15:24.079Z,1004.39
2018-04-29T07:16:24.085Z,1004.51
2018-04-29T07:17:24.047Z,1004.59
2018-04-29T07:18:24.118Z,1004.65
2018-04-29T07:19:24.064Z,1004.66
2018-04-29T07:20:24.019Z,1004.71
2018-04-29T07:21:23.916Z,1004.72
2018-04-29T07:22:23.959Z,1004.73
2018-04-29T07:23:23.874Z,1004.72
2018-04-29T07:24:23.843Z,1004.72
2018-04-29T07:25:23.963Z,1004.63
2018-04-29T07:26:23.790Z,1004.61
2018-04-29T07:27:23.756Z,1004.53
2018-04-29T07:28:23.823Z,1004.49
2018-04-29T07:29:23.707Z,1004.42
2018-04-29T07:30:23.668Z,1004.34
2018-04-29T07:31:23.648Z,1004.24
2018-04-29T07:32:23.639Z,1004.22
2018-04-29T07:33:23.595Z,1004.21
2018-04-29T07:34:23.568Z,1004.25
2018-04-29T07:35:23.545Z,1004.25
2018-04-29T07:36:23.517Z,1004.20
2018-04-29T07:37:23.487Z,1004.19
2018-04-29T07:38:23.529Z,1004.23
2018-04-29T07:39:23.436Z,1004.26
2018-04-29T07:40:23.404Z,1004.26
2018-04-29T07:41:23.387Z,1004.17
2018-04-29T07:42:23.345Z,1004.12
2018-04-29T07:43:23.320Z,1004.16
2018-04-29T07:44:23.299Z,1004.25
2018-04-29T07:45:23.265Z,1004.19
2018-04-29T07:46:23.308Z,1004.20
2018-04-29T07:47:23.246Z,1004.17
2018-04-29T07:48:23.187Z,1004.12
2018-04-29T07:49:23.204Z,1004.08
2018-04-29T07:50:23.134Z,1003.98
2018-04-29T07:51:23.112Z,1003.93
2018-04-29T07:52:23.092Z,1003.88
2018-04-29T07:53:23.081Z,1003.89
2018-04-29T07:54:23.033Z,1003.89
2018-04-29T07:55:22.999Z,1003.96
2018-04-29T07:56:22.975Z,1004.02
2018-04-29T07:57:22.946Z,1004.07
2018-04-29T07:58:22.920Z,1004.04
2018-04-29T07:59:22.895Z,1004.06
2018-04-29T08:00:22.936Z,1004.06
2018-04-29T08:01:22.841Z,1004.07
2018-04-29T08:02:22.814Z,1004.11
2018-04-29T08:03:22.789Z,1004.09
2018-04-29T08:04:22.774Z,1004.15
2018-04-29T08:05:22.878Z,1004.15
2018-04-29T08:06:22.717Z,1004.16
2018-04-29T08:07:22.685Z,1004.12
2018-04-29T08:08:22.671Z,1004.12
2018-04-29T08:09:22.645Z,1004.05
2018-04-29T08:10:22.613Z,1004.04
2018-04-29T08:11:22.584Z,1003.96
2018-04-29T08:12:22.561Z,1003.90
2018-04-29T08:13:22.535Z,1003.80
2018-04-29T08:14:22.503Z,1003.76
2018-04-29T08:15:22.506Z,1003.73
2018-04-29T08:16:22.454Z,1003.71
2018-04-29T08:17:22.436Z,1003.75
2018-04-29T08:18:22.470Z,1003.75
2018-04-29T08:19:22.376Z,1003.75
2018-04-29T08:20:22.355Z,1003.75
2018-04-29T08:21:22.332Z,1003.79
2018-04-29T08:22:22.297Z,1003.83
2018-04-29T08:23:22.280Z,1003.81
2018-04-29T08:24:22.245Z,1003.82
2018-04-29T08:25:22.230Z,1003.70
2018-04-29T08:26:22.197Z,1003.67
2018-04-29T08:27:22.171Z,1003.67
2018-04-29T08:28:22.230Z,1003.66
2018-04-29T08:29:22.199Z,1003.62
2018-04-29T08:30:22.091Z,1003.64
2018-04-29T08:31:22.270Z,1003.62
2018-04-29T08:32:22.047Z,1003.61
2018-04-29T08:33:22.011Z,1003.63
2018-04-29T08:34:22.090Z,1003.63
2018-04-29T08:35:21.962Z,1003.63
2018-04-29T08:36:21.933Z,1003.74
2018-04-29T08:37:21.907Z,1003.83
2018-04-29T08:38:21.878Z,1003.89
2018-04-29T08:39:21.861Z,1003.92
2018-04-29T08:40:21.830Z,1004.03
2018-04-29T08:41:21.810Z,1004.08
2018-04-29T08:42:21.780Z,1004.17
2018-04-29T08:43:21.884Z,1004.11
2018-04-29T08:44:21.733Z,1004.15
2018-04-29T08:45:21.705Z,1004.14
2018-04-29T08:46:21.681Z,1004.19
2018-04-29T08:47:21.656Z,1004.16
2018-04-29T08:48:21.626Z,1004.12
2018-04-29T08:49:21.603Z,1004.13
2018-04-29T08:50:21.570Z,1004.06
2018-04-29T08:51:21.545Z,1004.00
2018-04-29T08:52:21.522Z,1004.01
2018-04-29T08:53:21.517Z,1004.00
2018-04-29T08:54:21.464Z,1004.04
2018-04-29T08:55:21.443Z,1004.13
2018-04-29T08:56:21.419Z,1004.24
2018-04-29T08:57:21.386Z,1004.36
2018-04-29T08:58:21.361Z,1004.38
2018-04-29T08:59:21.383Z,1004.36
2018-04-29T09:00:21.311Z,1004.31
2018-04-29T09:01:21.296Z,1004.23
2018-04-29T09:02:21.268Z,1004.14
2018-04-29T09:03:21.228Z,1004.00
2018-04-29T09:04:21.207Z,1003.84
2018-04-29T09:05:21.178Z,1003.69
2018-04-29T09:06:21.153Z,1003.65
2018-04-29T09:07:21.211Z,1003.64
2018-04-29T09:08:21.151Z,1003.72
2018-04-29T09:09:21.071Z,1003.71
2018-04-29T09:10:21.059Z,1003.68
2018-04-29T09:11:21.017Z,1003.65
2018-04-29T09:12:21.122Z,1003.76
2018-04-29T09:13:20.965Z,1003.82
2018-04-29T09:14:21.059Z,1003.92
2018-04-29T09:15:20.919Z,1003.91
2018-04-29T09:16:20.889Z,1003.91
2018-04-29T09:17:20.862Z,1003.83
2018-04-29T09:18:20.840Z,1003.81
2018-04-29T09:19:20.817Z,1003.81
2018-04-29T09:20:20.783Z,1003.85
2018-04-29T09:21:20.886Z,1003.92
2018-04-29T09:22:20.736Z,1003.95
2018-04-29T09:23:20.701Z,1003.93
2018-04-29T09:24:20.702Z,1003.95
2018-04-29T09:25:20.649Z,1003.85
2018-04-29T09:26:20.626Z,1003.69
2018-04-29T09:27:20.613Z,1003.61
2018-04-29T09:28:20.582Z,1003.59
2018-04-29T09:29:20.547Z,1003.70
2018-04-29T09:30:20.525Z,1003.69
2018-04-29T09:31:20.546Z,1003.69
2018-04-29T09:32:20.487Z,1003.67
2018-04-29T09:33:20.459Z,1003.66
2018-04-29T09:34:20.432Z,1003.59
2018-04-29T09:35:20.402Z,1003.61
2018-04-29T09:36:20.378Z,1003.56
2018-04-29T09:37:20.348Z,1003.54
2018-04-29T09:38:20.330Z,1003.47
2018-04-29T09:39:20.339Z,1003.42
2018-04-29T09:40:20.302Z,1003.35
2018-04-29T09:41:20.263Z,1003.31
2018-04-29T09:42:20.244Z,1003.28
2018-04-29T09:43:20.269Z,1003.23
2018-04-29T09:44:20.184Z,1003.22
2018-04-29T09:45:20.192Z,1003.20
2018-04-29T09:46:20.228Z,1003.18
2018-04-29T09:47:20.111Z,1003.15
2018-04-29T09:48:20.081Z,1003.15
2018-04-29T09:49:20.058Z,1003.14
2018-04-29T09:50:20.035Z,1003.11
2018-04-29T09:51:20.008Z,1003.13
2018-04-29T09:52:19.990Z,1003.12
2018-04-29T09:53:20.054Z,1003.10
2018-04-29T09:54:19.931Z,1003.12
2018-04-29T09:55:19.988Z,1003.15
2018-04-29T09:56:19.894Z,1003.16
2018-04-29T09:57:19.867Z,1003.15
2018-04-29T09:58:19.845Z,1003.07
2018-04-29T09:59:19.875Z,1003.06
2018-04-29T10:00:19.795Z,1003.07
2018-04-29T10:01:19.805Z,1003.09
2018-04-29T10:02:19.751Z,1003.07
2018-04-29T10:03:19.726Z,1003.02
2018-04-29T10:04:19.697Z,1003.12
2018-04-29T10:05:19.675Z,1003.14
2018-04-29T10:06:19.653Z,1003.14
2018-04-29T10:07:19.632Z,1003.10
2018-04-29T10:08:19.600Z,1003.14
2018-04-29T10:09:19.576Z,1003.10
2018-04-29T10:10:19.571Z,1003.05
2018-04-29T10:11:19.591Z,1003.05
2018-04-29T10:12:19.510Z,1003.04
2018-04-29T10:13:19.491Z,1002.98
2018-04-29T10:14:19.474Z,1003.03
2018-04-29T10:15:19.440Z,1003.06
2018-04-29T10:16:19.571Z,1002.94
2018-04-29T10:17:19.398Z,1002.96
2018-04-29T10:18:19.368Z,1002.97
2018-04-29T10:19:19.340Z,1002.96
2018-04-29T10:20:19.327Z,1002.91
2018-04-29T10:21:19.296Z,1002.90
2018-04-29T10:22:19.275Z,1002.94
2018-04-29T10:23:19.263Z,1002.90
2018-04-29T10:24:19.242Z,1002.89
2018-04-29T10:25:19.212Z,1002.90
2018-04-29T10:26:19.187Z,1002.85
2018-04-29T10:27:19.179Z,1002.83
2018-04-29T10:28:19.144Z,1002.81
2018-04-29T10:29:19.116Z,1002.76
2018-04-29T10:30:19.095Z,1002.75
2018-04-29T10:31:19.090Z,1002.70
2018-04-29T10:32:19.114Z,1002.71
2018-04-29T10:33:19.080Z,1002.71
2018-04-29T10:34:19.001Z,1002.69
2018-04-29T10:35:18.981Z,1002.68
2018-04-29T10:36:18.968Z,1002.65
2018-04-29T10:37:18.932Z,1002.70
2018-04-29T10:38:18.906Z,1002.68
2018-04-29T10:39:18.894Z,1002.67
2018-04-29T10:40:18.868Z,1002.66
2018-04-29T10:41:18.844Z,1002.54
2018-04-29T10:42:18.821Z,1002.50
2018-04-29T10:43:18.805Z,1002.45
2018-04-29T10:44:18.922Z,1002.46
2018-04-29T10:45:18.746Z,1002.44
2018-04-29T10:46:18.725Z,1002.42
2018-04-29T10:47:18.709Z,1002.37
2018-04-29T10:48:18.694Z,1002.32
2018-04-29T10:49:18.666Z,1002.28
2018-04-29T10:50:18.640Z,1002.27
2018-04-29T10:51:18.622Z,1002.20
2018-04-29T10:52:18.597Z,1002.09
2018-04-29T10:53:18.573Z,1002.06
2018-04-29T10:54:18.555Z,1002.04
2018-04-29T10:55:18.535Z,1002.07
2018-04-29T10:56:18.513Z,1002.08
2018-04-29T10:57:18.493Z,1002.15
2018-04-29T10:58:18.464Z,1002.13
2018-04-29T10:59:18.437Z,1002.09
2018-04-29T11:00:18.414Z,1002.05
2018-04-29T11:01:18.395Z,1002.06
2018-04-29T11:02:18.373Z,1002.01
2018-04-29T11:03:18.352Z,1001.93
2018-04-29T11:04:18.469Z,1001.90
2018-04-29T11:05:18.296Z,1001.86
2018-04-29T11:06:18.279Z,1001.81
2018-04-29T11:07:18.259Z,1001.77
2018-04-29T11:08:18.239Z,1001.86
2018-04-29T11:09:18.213Z,1001.82
2018-04-29T11:10:18.236Z,1001.77
2018-04-29T11:11:18.171Z,1001.80
2018-04-29T11:12:18.158Z,1001.76
2018-04-29T11:13:18.183Z,1001.84
2018-04-29T11:14:18.106Z,1001.83
2018-04-29T11:15:18.108Z,1001.81
2018-04-29T11:16:18.086Z,1001.79
2018-04-29T11:17:18.045Z,1001.76
2018-04-29T11:18:18.011Z,1001.79
2018-04-29T11:19:18.012Z,1001.74
2018-04-29T11:20:17.972Z,1001.69
2018-04-29T11:21:17.993Z,1001.67
2018-04-29T11:22:18.062Z,1001.70
2018-04-29T11:23:17.984Z,1001.68
2018-04-29T11:24:17.997Z,1001.66
2018-04-29T11:25:17.865Z,1001.65
2018-04-29T11:26:17.843Z,1001.64
2018-04-29T11:27:17.833Z,1001.61
2018-04-29T11:28:17.817Z,1001.57
2018-04-29T11:29:17.786Z,1001.58
2018-04-29T11:30:17.760Z,1001.60
2018-04-29T11:31:17.740Z,1001.59
2018-04-29T11:32:17.709Z,1001.58
2018-04-29T11:33:17.683Z,1001.60
2018-04-29T11:34:17.670Z,1001.62
2018-04-29T11:35:17.722Z,1001.65
2018-04-29T11:36:17.624Z,1001.67
2018-04-29T11:37:17.601Z,1001.71
2018-04-29T11:38:17.579Z,1001.67
2018-04-29T11:39:17.568Z,1001.67
2018-04-29T11:40:17.619Z,1001.66
2018-04-29T11:41:17.574Z,1001.67
2018-04-29T11:42:17.500Z,1001.70
2018-04-29T11:43:17.568Z,1001.76
2018-04-29T11:44:17.467Z,1001.79
2018-04-29T11:45:17.436Z,1001.75
2018-04-29T11:46:17.414Z,1001.72
2018-04-29T11:47:17.515Z,1001.69
2018-04-29T11:48:17.388Z,1001.68
2018-04-29T11:49:17.382Z,1001.63
2018-04-29T11:50:17.371Z,1001.59
2018-04-29T11:51:17.323Z,1001.57
2018-04-29T11:52:17.292Z,1001.50
2018-04-29T11:53:17.296Z,1001.50
2018-04-29T11:54:17.258Z,1001.49
2018-04-29T11:55:17.226Z,1001.41
2018-04-29T11:56:17.256Z,1001.38
2018-04-29T11:57:17.188Z,1001.41
2018-04-29T11:58:17.165Z,1001.41
2018-04-29T11:59:17.149Z,1001.44
2018-04-29T12:00:17.132Z,1001.40
2018-04-29T12:01:17.106Z,1001.38
2018-04-29T12:02:17.171Z,1001.39
2018-04-29T12:03:17.073Z,1001.37
2018-04-29T12:04:17.210Z,1001.32
2018-04-29T12:05:17.025Z,1001.28